sensor_id;sensor_type;location;lat;lon;timestamp;pressure;altitude;pressure_sealevel;temperature;humidity
8398;BME280;4236;54.504;9.588;2023-01-28T00:00:48;102965.25;;;-3.24;100.00
8398;BME280;4236;54.504;9.588;2023-01-28T00:03:17;102967.97;;;-3.27;100.00
8398;BME280;4236;54.504;9.588;2023-01-28T00:05:45;102968.91;;;-3.30;100.00
8398;BME280;4236;54.504;9.588;2023-01-28T00:08:13;102969.88;;;-3.32;100.00
8398;BME280;4236;54.504;9.588;2023-01-28T00:10:41;102975.22;;;-3.36;100.00
8398;BME280;4236;54.504;9.588;2023-01-28T00:13:10;102985.69;;;-3.37;100.00
8398;BME280;4236;54.504;9.588;2023-01-28T00:15:40;102977.97;;;-3.40;100.00
8398;BME280;4236;54.504;9.588;2023-01-28T00:18:08;102983.28;;;-3.43;100.00
8398;BME280;4236;54.504;9.588;2023-01-28T00:20:37;102986.06;;;-3.48;100.00
8398;BME280;4236;54.504;9.588;2023-01-28T00:23:05;102984.44;;;-3.52;100.00
8398;BME280;4236;54.504;9.588;2023-01-28T00:25:32;102987.13;;;-3.53;100.00
8398;BME280;4236;54.504;9.588;2023-01-28T00:28:00;102984.63;;;-3.56;100.00
8398;BME280;4236;54.504;9.588;2023-01-28T00:30:27;102978.53;;;-3.57;100.00
8398;BME280;4236;54.504;9.588;2023-01-28T00:32:55;102972.53;;;-3.59;100.00
8398;BME280;4236;54.504;9.588;2023-01-28T00:35:23;102977.78;;;-3.60;100.00
8398;BME280;4236;54.504;9.588;2023-01-28T00:37:52;102974.44;;;-3.64;100.00
8398;BME280;4236;54.504;9.588;2023-01-28T00:40:20;102959.75;;;-3.66;100.00
8398;BME280;4236;54.504;9.588;2023-01-28T00:42:47;102958.09;;;-3.69;100.00
8398;BME280;4236;54.504;9.588;2023-01-28T00:45:15;102959.94;;;-3.72;100.00
8398;BME280;4236;54.504;9.588;2023-01-28T00:47:43;102955.69;;;-3.75;100.00
8398;BME280;4236;54.504;9.588;2023-01-28T00:50:11;102957.53;;;-3.78;100.00
8398;BME280;4236;54.504;9.588;2023-01-28T00:52:39;102961.13;;;-3.81;100.00
8398;BME280;4236;54.504;9.588;2023-01-28T00:55:08;102963.78;;;-3.82;100.00
8398;BME280;4236;54.504;9.588;2023-01-28T00:57:36;102974.22;;;-3.82;100.00
8398;BME280;4236;54.504;9.588;2023-01-28T01:00:05;102970.78;;;-3.84;100.00
8398;BME280;4236;54.504;9.588;2023-01-28T01:02:33;102983.03;;;-3.86;100.00
8398;BME280;4236;54.504;9.588;2023-01-28T01:05:00;102967.47;;;-3.89;100.00
8398;BME280;4236;54.504;9.588;2023-01-28T01:07:30;102980.53;;;-3.91;100.00
8398;BME280;4236;54.504;9.588;2023-01-28T01:10:10;102984.19;;;-3.95;100.00
8398;BME280;4236;54.504;9.588;2023-01-28T01:12:39;102980.75;;;-3.97;100.00
8398;BME280;4236;54.504;9.588;2023-01-28T01:15:08;102966.91;;;-3.99;100.00
8398;BME280;4236;54.504;9.588;2023-01-28T01:17:36;102966.13;;;-4.01;100.00
8398;BME280;4236;54.504;9.588;2023-01-28T01:20:06;102973.13;;;-4.03;100.00
8398;BME280;4236;54.504;9.588;2023-01-28T01:22:35;102969.78;;;-4.07;100.00
8398;BME280;4236;54.504;9.588;2023-01-28T01:25:04;102958.53;;;-4.09;100.00
8398;BME280;4236;54.504;9.588;2023-01-28T01:27:33;102957.75;;;-4.11;100.00
8398;BME280;4236;54.504;9.588;2023-01-28T01:30:01;102951.84;;;-4.16;100.00
8398;BME280;4236;54.504;9.588;2023-01-28T01:32:30;102938.00;;;-4.18;100.00
8398;BME280;4236;54.504;9.588;2023-01-28T01:34:58;102951.94;;;-4.19;100.00
8398;BME280;4236;54.504;9.588;2023-01-28T01:37:26;102940.69;;;-4.21;100.00
8398;BME280;4236;54.504;9.588;2023-01-28T01:39:53;102944.22;;;-4.22;100.00
8398;BME280;4236;54.504;9.588;2023-01-28T01:42:23;102943.34;;;-4.22;100.00
8398;BME280;4236;54.504;9.588;2023-01-28T01:44:55;102945.09;;;-4.23;100.00
8398;BME280;4236;54.504;9.588;2023-01-28T01:47:25;102954.66;;;-4.23;100.00
8398;BME280;4236;54.504;9.588;2023-01-28T01:49:57;102951.22;;;-4.24;100.00
8398;BME280;4236;54.504;9.588;2023-01-28T01:52:31;102947.78;;;-4.24;100.00
8398;BME280;4236;54.504;9.588;2023-01-28T01:55:03;102936.50;;;-4.25;100.00
8398;BME280;4236;54.504;9.588;2023-01-28T01:57:34;102947.81;;;-4.26;100.00
8398;BME280;4236;54.504;9.588;2023-01-28T02:00:07;102955.59;;;-4.24;100.00
8398;BME280;4236;54.504;9.588;2023-01-28T02:02:37;102961.63;;;-4.24;100.00
8398;BME280;4236;54.504;9.588;2023-01-28T02:05:07;102943.44;;;-4.25;100.00
8398;BME280;4236;54.504;9.588;2023-01-28T02:07:35;102936.53;;;-4.26;100.00
8398;BME280;4236;54.504;9.588;2023-01-28T02:10:04;102934.88;;;-4.29;100.00
8398;BME280;4236;54.504;9.588;2023-01-28T02:12:35;102944.44;;;-4.29;100.00
8398;BME280;4236;54.504;9.588;2023-01-28T02:15:08;102941.91;;;-4.31;100.00
8398;BME280;4236;54.504;9.588;2023-01-28T02:17:36;102939.31;;;-4.32;100.00
8398;BME280;4236;54.504;9.588;2023-01-28T02:20:07;102933.25;;;-4.33;100.00
8398;BME280;4236;54.504;9.588;2023-01-28T02:26:09;102931.59;;;-4.35;100.00
8398;BME280;4236;54.504;9.588;2023-01-28T02:28:47;102928.97;;;-4.34;100.00
8398;BME280;4236;54.504;9.588;2023-01-28T02:31:19;102937.66;;;-4.35;100.00
8398;BME280;4236;54.504;9.588;2023-01-28T02:33:52;102950.69;;;-4.35;100.00
8398;BME280;4236;54.504;9.588;2023-01-28T02:36:27;102947.22;;;-4.35;100.00
8398;BME280;4236;54.504;9.588;2023-01-28T02:39:00;102949.84;;;-4.35;100.00
8398;BME280;4236;54.504;9.588;2023-01-28T02:41:33;102944.69;;;-4.37;100.00
8398;BME280;4236;54.504;9.588;2023-01-28T02:44:05;102940.38;;;-4.38;100.00
8398;BME280;4236;54.504;9.588;2023-01-28T02:46:34;102936.03;;;-4.37;100.00
8398;BME280;4236;54.504;9.588;2023-01-28T02:49:24;102935.97;;;-4.36;100.00
8398;BME280;4236;54.504;9.588;2023-01-28T02:52:04;102929.97;;;-4.38;100.00
8398;BME280;4236;54.504;9.588;2023-01-28T02:54:41;102929.94;;;-4.36;100.00
8398;BME280;4236;54.504;9.588;2023-01-28T02:57:21;102929.06;;;-4.37;100.00
8398;BME280;4236;54.504;9.588;2023-01-28T02:59:57;102927.41;;;-4.39;100.00
8398;BME280;4236;54.504;9.588;2023-01-28T03:02:29;102925.72;;;-4.42;100.00
8398;BME280;4236;54.504;9.588;2023-01-28T03:05:02;102914.53;;;-4.44;100.00
8398;BME280;4236;54.504;9.588;2023-01-28T03:07:34;102907.66;;;-4.47;100.00
8398;BME280;4236;54.504;9.588;2023-01-28T03:10:05;102900.84;;;-4.51;100.00
8398;BME280;4236;54.504;9.588;2023-01-28T03:12:34;102897.44;;;-4.53;100.00
8398;BME280;4236;54.504;9.588;2023-01-28T03:15:24;102890.56;;;-4.55;100.00
8398;BME280;4236;54.504;9.588;2023-01-28T03:18:12;102891.53;;;-4.58;100.00
8398;BME280;4236;54.504;9.588;2023-01-28T03:21:04;102895.00;;;-4.57;100.00
8398;BME280;4236;54.504;9.588;2023-01-28T03:23:53;102887.97;;;-4.55;100.00
8398;BME280;4236;54.504;9.588;2023-01-28T03:26:44;102902.66;;;-4.53;100.00
8398;BME280;4236;54.504;9.588;2023-01-28T03:29:33;102903.50;;;-4.52;100.00
8398;BME280;4236;54.504;9.588;2023-01-28T03:32:22;102904.28;;;-4.50;100.00
8398;BME280;4236;54.504;9.588;2023-01-28T03:35:07;102897.31;;;-4.48;100.00
8398;BME280;4236;54.504;9.588;2023-01-28T03:37:54;102915.53;;;-4.48;100.00
8398;BME280;4236;54.504;9.588;2023-01-28T03:40:25;102923.34;;;-4.48;100.00
8398;BME280;4236;54.504;9.588;2023-01-28T03:42:53;102928.56;;;-4.48;100.00
8398;BME280;4236;54.504;9.588;2023-01-28T03:45:22;102918.13;;;-4.48;100.00
8398;BME280;4236;54.504;9.588;2023-01-28T03:47:51;102914.72;;;-4.50;100.00
8398;BME280;4236;54.504;9.588;2023-01-28T03:50:19;102905.22;;;-4.51;100.00
8398;BME280;4236;54.504;9.588;2023-01-28T03:52:47;102911.31;;;-4.52;100.00
8398;BME280;4236;54.504;9.588;2023-01-28T03:55:14;102910.44;;;-4.53;100.00
8398;BME280;4236;54.504;9.588;2023-01-28T03:57:42;102911.34;;;-4.54;100.00
8398;BME280;4236;54.504;9.588;2023-01-28T04:00:12;102920.94;;;-4.54;100.00
8398;BME280;4236;54.504;9.588;2023-01-28T04:02:39;102920.94;;;-4.54;100.00
8398;BME280;4236;54.504;9.588;2023-01-28T04:05:09;102933.03;;;-4.53;100.00
8398;BME280;4236;54.504;9.588;2023-01-28T04:07:38;102938.25;;;-4.53;100.00
8398;BME280;4236;54.504;9.588;2023-01-28T04:10:07;102922.63;;;-4.53;100.00
8398;BME280;4236;54.504;9.588;2023-01-28T04:12:35;102926.97;;;-4.54;100.00
8398;BME280;4236;54.504;9.588;2023-01-28T04:15:05;102919.13;;;-4.52;100.00
8398;BME280;4236;54.504;9.588;2023-01-28T04:17:44;102910.44;;;-4.51;100.00
8398;BME280;4236;54.504;9.588;2023-01-28T04:20:14;102907.81;;;-4.51;100.00
8398;BME280;4236;54.504;9.588;2023-01-28T04:22:42;102905.22;;;-4.51;100.00
8398;BME280;4236;54.504;9.588;2023-01-28T04:25:09;102908.63;;;-4.49;100.00
8398;BME280;4236;54.504;9.588;2023-01-28T04:27:38;102892.13;;;-4.50;100.00
8398;BME280;4236;54.504;9.588;2023-01-28T04:30:07;102891.16;;;-4.45;100.00
8398;BME280;4236;54.504;9.588;2023-01-28T04:32:34;102888.38;;;-4.41;100.00
8398;BME280;4236;54.504;9.588;2023-01-28T04:35:02;102890.03;;;-4.38;100.00
8398;BME280;4236;54.504;9.588;2023-01-28T04:37:31;102889.16;;;-4.37;100.00
8398;BME280;4236;54.504;9.588;2023-01-28T04:39:59;102883.03;;;-4.36;100.00
8398;BME280;4236;54.504;9.588;2023-01-28T04:42:27;102889.94;;;-4.35;100.00
8398;BME280;4236;54.504;9.588;2023-01-28T04:44:54;102879.50;;;-4.35;100.00
8398;BME280;4236;54.504;9.588;2023-01-28T04:47:22;102882.97;;;-4.35;100.00
8398;BME280;4236;54.504;9.588;2023-01-28T04:49:49;102868.97;;;-4.31;100.00
8398;BME280;4236;54.504;9.588;2023-01-28T04:52:17;102867.16;;;-4.29;100.00
8398;BME280;4236;54.504;9.588;2023-01-28T04:54:46;102862.69;;;-4.25;100.00
8398;BME280;4236;54.504;9.588;2023-01-28T04:57:14;102863.56;;;-4.25;100.00
8398;BME280;4236;54.504;9.588;2023-01-28T04:59:42;102854.81;;;-4.24;100.00
8398;BME280;4236;54.504;9.588;2023-01-28T05:02:09;102855.75;;;-4.25;100.00
8398;BME280;4236;54.504;9.588;2023-01-28T05:04:37;102844.47;;;-4.25;100.00
8398;BME280;4236;54.504;9.588;2023-01-28T05:07:04;102840.16;;;-4.26;100.00
8398;BME280;4236;54.504;9.588;2023-01-28T05:09:32;102841.88;;;-4.25;100.00
8398;BME280;4236;54.504;9.588;2023-01-28T05:12:01;102845.34;;;-4.26;100.00
8398;BME280;4236;54.504;9.588;2023-01-28T05:14:29;102836.69;;;-4.27;100.00
8398;BME280;4236;54.504;9.588;2023-01-28T05:16:57;102833.19;;;-4.26;100.00
8398;BME280;4236;54.504;9.588;2023-01-28T05:19:25;102812.34;;;-4.26;100.00
8398;BME280;4236;54.504;9.588;2023-01-28T05:21:52;102826.22;;;-4.25;100.00
8398;BME280;4236;54.504;9.588;2023-01-28T05:24:20;102827.94;;;-4.24;100.00
8398;BME280;4236;54.504;9.588;2023-01-28T05:26:48;102832.19;;;-4.22;100.00
8398;BME280;4236;54.504;9.588;2023-01-28T05:29:17;102818.25;;;-4.21;100.00
8398;BME280;4236;54.504;9.588;2023-01-28T05:31:46;102821.69;;;-4.19;100.00
8398;BME280;4236;54.504;9.588;2023-01-28T05:34:14;102814.66;;;-4.17;100.00
8398;BME280;4236;54.504;9.588;2023-01-28T05:36:42;102819.81;;;-4.15;100.00
8398;BME280;4236;54.504;9.588;2023-01-28T05:39:09;102832.78;;;-4.14;100.00
8398;BME280;4236;54.504;9.588;2023-01-28T05:41:37;102839.72;;;-4.13;100.00
8398;BME280;4236;54.504;9.588;2023-01-28T05:44:05;102838.75;;;-4.10;100.00
8398;BME280;4236;54.504;9.588;2023-01-28T05:46:33;102832.56;;;-4.08;100.00
8398;BME280;4236;54.504;9.588;2023-01-28T05:49:01;102832.53;;;-4.06;100.00
8398;BME280;4236;54.504;9.588;2023-01-28T05:51:29;102828.13;;;-4.04;100.00
8398;BME280;4236;54.504;9.588;2023-01-28T05:53:56;102834.13;;;-4.02;100.00
8398;BME280;4236;54.504;9.588;2023-01-28T05:56:24;102834.91;;;-4.00;100.00
8398;BME280;4236;54.504;9.588;2023-01-28T05:58:52;102831.41;;;-3.99;100.00
8398;BME280;4236;54.504;9.588;2023-01-28T06:01:20;102827.91;;;-3.98;100.00
8398;BME280;4236;54.504;9.588;2023-01-28T06:03:49;102830.50;;;-3.98;100.00
8398;BME280;4236;54.504;9.588;2023-01-28T06:06:16;102842.69;;;-3.99;100.00
8398;BME280;4236;54.504;9.588;2023-01-28T06:08:44;102839.22;;;-3.99;100.00
8398;BME280;4236;54.504;9.588;2023-01-28T06:11:12;102841.03;;;-4.01;100.00
8398;BME280;4236;54.504;9.588;2023-01-28T06:13:39;102844.53;;;-4.02;100.00
8398;BME280;4236;54.504;9.588;2023-01-28T06:16:07;102854.97;;;-4.02;100.00
8398;BME280;4236;54.504;9.588;2023-01-28T06:18:35;102848.09;;;-4.05;100.00
8398;BME280;4236;54.504;9.588;2023-01-28T06:21:04;102848.91;;;-4.03;100.00
8398;BME280;4236;54.504;9.588;2023-01-28T06:23:32;102849.75;;;-4.02;100.00
8398;BME280;4236;54.504;9.588;2023-01-28T06:26:00;102852.31;;;-4.01;100.00
8398;BME280;4236;54.504;9.588;2023-01-28T06:28:28;102860.94;;;-3.99;100.00
8398;BME280;4236;54.504;9.588;2023-01-28T06:30:55;102870.47;;;-3.98;100.00
8398;BME280;4236;54.504;9.588;2023-01-28T06:33:23;102861.72;;;-3.97;100.00
8398;BME280;4236;54.504;9.588;2023-01-28T06:35:51;102850.41;;;-3.96;100.00
8398;BME280;4236;54.504;9.588;2023-01-28T06:38:20;102844.34;;;-3.96;100.00
8398;BME280;4236;54.504;9.588;2023-01-28T06:40:50;102852.94;;;-3.94;100.00
8398;BME280;4236;54.504;9.588;2023-01-28T06:43:18;102857.25;;;-3.93;100.00
8398;BME280;4236;54.504;9.588;2023-01-28T06:45:46;102862.38;;;-3.90;100.00
8398;BME280;4236;54.504;9.588;2023-01-28T06:48:13;102866.63;;;-3.87;100.00
8398;BME280;4236;54.504;9.588;2023-01-28T06:50:41;102869.09;;;-3.83;100.00
8398;BME280;4236;54.504;9.588;2023-01-28T06:53:09;102868.13;;;-3.80;100.00
8398;BME280;4236;54.504;9.588;2023-01-28T06:55:39;102856.81;;;-3.79;100.00
8398;BME280;4236;54.504;9.588;2023-01-28T06:58:07;102866.25;;;-3.77;100.00
8398;BME280;4236;54.504;9.588;2023-01-28T07:00:35;102867.91;;;-3.74;100.00
8398;BME280;4236;54.504;9.588;2023-01-28T07:03:02;102860.84;;;-3.71;100.00
8398;BME280;4236;54.504;9.588;2023-01-28T07:05:30;102864.22;;;-3.69;100.00
8398;BME280;4236;54.504;9.588;2023-01-28T07:07:58;102864.91;;;-3.64;100.00
8398;BME280;4236;54.504;9.588;2023-01-28T07:10:27;102862.28;;;-3.62;100.00
8398;BME280;4236;54.504;9.588;2023-01-28T07:12:57;102859.59;;;-3.61;100.00
8398;BME280;4236;54.504;9.588;2023-01-28T07:15:25;102869.16;;;-3.61;100.00
8398;BME280;4236;54.504;9.588;2023-01-28T07:17:52;102859.59;;;-3.61;100.00
8398;BME280;4236;54.504;9.588;2023-01-28T07:20:20;102843.94;;;-3.61;100.00
8398;BME280;4236;54.504;9.588;2023-01-28T07:22:48;102849.97;;;-3.59;100.00
8398;BME280;4236;54.504;9.588;2023-01-28T07:25:15;102868.94;;;-3.55;100.00
8398;BME280;4236;54.504;9.588;2023-01-28T07:27:47;102869.75;;;-3.53;100.00
8398;BME280;4236;54.504;9.588;2023-01-28T07:30:18;102882.63;;;-3.49;100.00
8398;BME280;4236;54.504;9.588;2023-01-28T07:32:48;102879.75;;;-3.41;100.00
8398;BME280;4236;54.504;9.588;2023-01-28T07:35:18;102879.47;;;-3.33;100.00
8398;BME280;4236;54.504;9.588;2023-01-28T07:37:51;102884.47;;;-3.27;100.00
8398;BME280;4236;54.504;9.588;2023-01-28T07:40:19;102878.88;;;-3.17;100.00
8398;BME280;4236;54.504;9.588;2023-01-28T07:42:47;102885.50;;;-3.08;100.00
8398;BME280;4236;54.504;9.588;2023-01-28T07:45:15;102892.19;;;-3.01;100.00
8398;BME280;4236;54.504;9.588;2023-01-28T07:47:44;102903.22;;;-2.93;100.00
8398;BME280;4236;54.504;9.588;2023-01-28T07:50:11;102902.00;;;-2.85;100.00
8398;BME280;4236;54.504;9.588;2023-01-28T07:52:40;102895.56;;;-2.76;100.00
8398;BME280;4236;54.504;9.588;2023-01-28T07:55:10;102882.09;;;-2.65;100.00
8398;BME280;4236;54.504;9.588;2023-01-28T07:57:47;102890.31;;;-2.53;100.00
8398;BME280;4236;54.504;9.588;2023-01-28T08:00:16;102896.88;;;-2.43;100.00
8398;BME280;4236;54.504;9.588;2023-01-28T08:02:46;102896.44;;;-2.32;100.00
8398;BME280;4236;54.504;9.588;2023-01-28T08:05:15;102899.47;;;-2.21;100.00
8398;BME280;4236;54.504;9.588;2023-01-28T08:07:44;102910.34;;;-2.10;100.00
8398;BME280;4236;54.504;9.588;2023-01-28T08:10:14;102907.28;;;-1.99;100.00
8398;BME280;4236;54.504;9.588;2023-01-28T08:12:50;102902.47;;;-1.88;100.00
8398;BME280;4236;54.504;9.588;2023-01-28T08:15:18;102913.25;;;-1.76;100.00
8398;BME280;4236;54.504;9.588;2023-01-28T08:17:47;102913.66;;;-1.64;100.00
8398;BME280;4236;54.504;9.588;2023-01-28T08:20:15;102900.97;;;-1.53;100.00
8398;BME280;4236;54.504;9.588;2023-01-28T08:22:43;102915.34;;;-1.43;100.00
8398;BME280;4236;54.504;9.588;2023-01-28T08:25:11;102918.22;;;-1.29;100.00
8398;BME280;4236;54.504;9.588;2023-01-28T08:27:40;102924.53;;;-1.15;100.00
8398;BME280;4236;54.504;9.588;2023-01-28T08:30:08;102923.13;;;-1.03;100.00
8398;BME280;4236;54.504;9.588;2023-01-28T08:32:36;102917.63;;;-0.97;100.00
8398;BME280;4236;54.504;9.588;2023-01-28T08:35:07;102905.25;;;-0.93;100.00
8398;BME280;4236;54.504;9.588;2023-01-28T08:37:34;102903.88;;;-0.83;100.00
8398;BME280;4236;54.504;9.588;2023-01-28T08:40:02;102920.44;;;-0.83;100.00
8398;BME280;4236;54.504;9.588;2023-01-28T08:42:30;102917.84;;;-0.83;100.00
8398;BME280;4236;54.504;9.588;2023-01-28T08:44:58;102912.69;;;-0.84;100.00
8398;BME280;4236;54.504;9.588;2023-01-28T08:47:25;102901.41;;;-0.86;100.00
8398;BME280;4236;54.504;9.588;2023-01-28T08:49:53;102901.34;;;-0.85;100.00
8398;BME280;4236;54.504;9.588;2023-01-28T08:52:22;102888.88;;;-0.80;100.00
8398;BME280;4236;54.504;9.588;2023-01-28T08:54:50;102890.34;;;-0.74;100.00
8398;BME280;4236;54.504;9.588;2023-01-28T08:57:17;102883.84;;;-0.66;100.00
8398;BME280;4236;54.504;9.588;2023-01-28T08:59:45;102883.50;;;-0.58;100.00
8398;BME280;4236;54.504;9.588;2023-01-28T09:02:13;102890.22;;;-0.52;100.00
8398;BME280;4236;54.504;9.588;2023-01-28T09:04:56;102900.34;;;-0.45;100.00
8398;BME280;4236;54.504;9.588;2023-01-28T09:07:25;102907.91;;;-0.39;100.00
8398;BME280;4236;54.504;9.588;2023-01-28T09:09:53;102909.28;;;-0.32;100.00
8398;BME280;4236;54.504;9.588;2023-01-28T09:12:21;102909.00;;;-0.26;100.00
8398;BME280;4236;54.504;9.588;2023-01-28T09:14:49;102903.47;;;-0.20;100.00
8398;BME280;4236;54.504;9.588;2023-01-28T09:17:17;102902.94;;;-0.09;100.00
8398;BME280;4236;54.504;9.588;2023-01-28T09:19:45;102893.84;;;-0.02;100.00
8398;BME280;4236;54.504;9.588;2023-01-28T09:22:12;102897.78;;;0.07;100.00
8398;BME280;4236;54.504;9.588;2023-01-28T09:24:41;102897.63;;;0.10;100.00
8398;BME280;4236;54.504;9.588;2023-01-28T09:27:09;102900.78;;;0.16;100.00
8398;BME280;4236;54.504;9.588;2023-01-28T09:29:37;102899.63;;;0.22;100.00
8398;BME280;4236;54.504;9.588;2023-01-28T09:32:05;102876.72;;;0.25;100.00
8398;BME280;4236;54.504;9.588;2023-01-28T09:34:33;102867.75;;;0.29;100.00
8398;BME280;4236;54.504;9.588;2023-01-28T09:37:01;102871.00;;;0.34;100.00
8398;BME280;4236;54.504;9.588;2023-01-28T09:39:29;102871.84;;;0.35;100.00
8398;BME280;4236;54.504;9.588;2023-01-28T09:42:10;102874.22;;;0.39;100.00
8398;BME280;4236;54.504;9.588;2023-01-28T09:44:56;102874.75;;;0.46;100.00
8398;BME280;4236;54.504;9.588;2023-01-28T09:47:29;102870.88;;;0.53;100.00
8398;BME280;4236;54.504;9.588;2023-01-28T09:50:02;102868.09;;;0.56;100.00
8398;BME280;4236;54.504;9.588;2023-01-28T09:52:34;102870.25;;;0.65;100.00
8398;BME280;4236;54.504;9.588;2023-01-28T09:55:05;102865.53;;;0.72;100.00
8398;BME280;4236;54.504;9.588;2023-01-28T09:57:38;102858.09;;;0.80;100.00
8398;BME280;4236;54.504;9.588;2023-01-28T10:00:13;102857.75;;;0.86;100.00
8398;BME280;4236;54.504;9.588;2023-01-28T10:02:52;102853.84;;;0.93;100.00
8398;BME280;4236;54.504;9.588;2023-01-28T10:05:29;102845.78;;;0.96;100.00
8398;BME280;4236;54.504;9.588;2023-01-28T10:08:10;102841.69;;;1.07;100.00
8398;BME280;4236;54.504;9.588;2023-01-28T10:10:45;102831.47;;;1.17;100.00
8398;BME280;4236;54.504;9.588;2023-01-28T10:13:26;102816.31;;;1.22;100.00
8398;BME280;4236;54.504;9.588;2023-01-28T10:16:08;102811.19;;;1.35;100.00
8398;BME280;4236;54.504;9.588;2023-01-28T10:18:43;102810.50;;;1.47;100.00
8398;BME280;4236;54.504;9.588;2023-01-28T10:21:17;102816.19;;;1.55;100.00
8398;BME280;4236;54.504;9.588;2023-01-28T10:23:54;102798.06;;;1.64;100.00
8398;BME280;4236;54.504;9.588;2023-01-28T10:26:26;102816.31;;;1.67;100.00
8398;BME280;4236;54.504;9.588;2023-01-28T10:29:03;102823.59;;;1.78;100.00
8398;BME280;4236;54.504;9.588;2023-01-28T10:31:34;102824.09;;;1.85;100.00
8398;BME280;4236;54.504;9.588;2023-01-28T10:34:04;102815.91;;;1.89;100.00
8398;BME280;4236;54.504;9.588;2023-01-28T10:36:32;102820.75;;;1.97;100.00
8398;BME280;4236;54.504;9.588;2023-01-28T10:39:00;102814.25;;;2.02;100.00
8398;BME280;4236;54.504;9.588;2023-01-28T10:41:28;102823.47;;;2.09;100.00
8398;BME280;4236;54.504;9.588;2023-01-28T10:43:56;102822.91;;;2.18;100.00
8398;BME280;4236;54.504;9.588;2023-01-28T10:46:28;102815.50;;;2.25;100.00
8398;BME280;4236;54.504;9.588;2023-01-28T10:49:00;102811.38;;;2.21;100.00
8398;BME280;4236;54.504;9.588;2023-01-28T10:51:32;102807.78;;;2.22;100.00
8398;BME280;4236;54.504;9.588;2023-01-28T10:54:00;102818.06;;;2.27;100.00
8398;BME280;4236;54.504;9.588;2023-01-28T10:56:30;102806.50;;;2.29;100.00
8398;BME280;4236;54.504;9.588;2023-01-28T10:59:00;102810.81;;;2.30;100.00
8398;BME280;4236;54.504;9.588;2023-01-28T11:01:40;102789.38;;;2.36;100.00
8398;BME280;4236;54.504;9.588;2023-01-28T11:04:21;102785.63;;;2.40;100.00
8398;BME280;4236;54.504;9.588;2023-01-28T11:06:54;102790.88;;;2.40;100.00
8398;BME280;4236;54.504;9.588;2023-01-28T11:09:25;102787.69;;;2.35;100.00
8398;BME280;4236;54.504;9.588;2023-01-28T11:11:53;102788.44;;;2.37;100.00
8398;BME280;4236;54.504;9.588;2023-01-28T11:14:23;102788.19;;;2.42;100.00
8398;BME280;4236;54.504;9.588;2023-01-28T11:16:53;102779.97;;;2.46;100.00
8398;BME280;4236;54.504;9.588;2023-01-28T11:19:28;102777.34;;;2.46;100.00
8398;BME280;4236;54.504;9.588;2023-01-28T11:21:57;102775.63;;;2.45;100.00
8398;BME280;4236;54.504;9.588;2023-01-28T11:24:28;102770.97;;;2.50;100.00
8398;BME280;4236;54.504;9.588;2023-01-28T11:26:58;102773.22;;;2.56;100.00
8398;BME280;4236;54.504;9.588;2023-01-28T11:29:38;102764.66;;;2.53;100.00
8398;BME280;4236;54.504;9.588;2023-01-28T11:32:17;102751.94;;;2.59;100.00
8398;BME280;4236;54.504;9.588;2023-01-28T11:34:50;102748.53;;;2.71;100.00
8398;BME280;4236;54.504;9.588;2023-01-28T11:37:20;102746.34;;;2.78;100.00
8398;BME280;4236;54.504;9.588;2023-01-28T11:39:59;102753.97;;;2.83;100.00
8398;BME280;4236;54.504;9.588;2023-01-28T11:42:27;102754.91;;;2.82;100.00
8398;BME280;4236;54.504;9.588;2023-01-28T11:44:56;102756.78;;;2.79;100.00
8398;BME280;4236;54.504;9.588;2023-01-28T11:47:34;102738.19;;;2.68;100.00
8398;BME280;4236;54.504;9.588;2023-01-28T11:50:21;102729.13;;;2.72;100.00
8398;BME280;4236;54.504;9.588;2023-01-28T11:52:59;102738.63;;;2.75;100.00
8398;BME280;4236;54.504;9.588;2023-01-28T11:55:40;102741.06;;;2.78;100.00
8398;BME280;4236;54.504;9.588;2023-01-28T11:58:20;102745.78;;;2.73;100.00
8398;BME280;4236;54.504;9.588;2023-01-28T12:00:58;102744.00;;;2.73;100.00
8398;BME280;4236;54.504;9.588;2023-01-28T12:03:42;102737.81;;;2.60;100.00
8398;BME280;4236;54.504;9.588;2023-01-28T12:06:23;102735.94;;;2.62;100.00
8398;BME280;4236;54.504;9.588;2023-01-28T12:09:04;102736.16;;;2.59;100.00
8398;BME280;4236;54.504;9.588;2023-01-28T12:11:42;102728.88;;;2.63;100.00
8398;BME280;4236;54.504;9.588;2023-01-28T12:14:36;102721.53;;;2.68;100.00
8398;BME280;4236;54.504;9.588;2023-01-28T12:17:16;102721.22;;;2.87;100.00
8398;BME280;4236;54.504;9.588;2023-01-28T12:20:04;102718.41;;;3.02;100.00
8398;BME280;4236;54.504;9.588;2023-01-28T12:22:53;102718.00;;;3.08;100.00
8398;BME280;4236;54.504;9.588;2023-01-28T12:25:37;102705.09;;;3.18;100.00
8398;BME280;4236;54.504;9.588;2023-01-28T12:28:13;102708.25;;;3.23;100.00
8398;BME280;4236;54.504;9.588;2023-01-28T12:30:55;102706.59;;;3.22;100.00
8398;BME280;4236;54.504;9.588;2023-01-28T12:33:41;102705.22;;;3.29;100.00
8398;BME280;4236;54.504;9.588;2023-01-28T12:36:23;102704.50;;;3.40;100.00
8398;BME280;4236;54.504;9.588;2023-01-28T12:39:01;102704.53;;;3.52;100.00
8398;BME280;4236;54.504;9.588;2023-01-28T12:41:36;102706.56;;;3.61;100.00
8398;BME280;4236;54.504;9.588;2023-01-28T12:44:10;102707.41;;;3.74;100.00
8398;BME280;4236;54.504;9.588;2023-01-28T12:46:44;102691.25;;;3.79;100.00
8398;BME280;4236;54.504;9.588;2023-01-28T12:49:18;102699.56;;;3.85;100.00
8398;BME280;4236;54.504;9.588;2023-01-28T12:51:56;102704.88;;;3.98;100.00
8398;BME280;4236;54.504;9.588;2023-01-28T12:54:30;102700.66;;;4.08;100.00
8398;BME280;4236;54.504;9.588;2023-01-28T12:57:01;102697.78;;;4.11;100.00
8398;BME280;4236;54.504;9.588;2023-01-28T12:59:32;102705.94;;;4.08;100.00
8398;BME280;4236;54.504;9.588;2023-01-28T13:02:13;102699.38;;;4.01;100.00
8398;BME280;4236;54.504;9.588;2023-01-28T13:04:50;102699.38;;;3.88;100.00
8398;BME280;4236;54.504;9.588;2023-01-28T13:07:24;102694.94;;;3.76;100.00
8398;BME280;4236;54.504;9.588;2023-01-28T13:09:58;102695.69;;;3.78;100.00
8398;BME280;4236;54.504;9.588;2023-01-28T13:12:30;102689.66;;;3.76;100.00
8398;BME280;4236;54.504;9.588;2023-01-28T13:14:59;102694.63;;;3.68;100.00
8398;BME280;4236;54.504;9.588;2023-01-28T13:17:29;102702.25;;;3.73;100.00
8398;BME280;4236;54.504;9.588;2023-01-28T13:19:57;102693.69;;;3.69;100.00
8398;BME280;4236;54.504;9.588;2023-01-28T13:22:32;102696.31;;;3.69;100.00
8398;BME280;4236;54.504;9.588;2023-01-28T13:25:21;102685.56;;;3.72;100.00
8398;BME280;4236;54.504;9.588;2023-01-28T13:27:57;102678.47;;;3.60;100.00